Time;durP1;ratioP1;P1;durP2;ratioP2;P2;SDS_P1;SDS_P2;PMS_P1;PMS_P2;Temp;Humidity;BMP_temperature;BMP_pressure;BME280_temperature;BME280_humidity;BME280_pressure;Samples;Min_cycle;Max_cycle;Signal;HPM_P1;HPM_P2
2022/09/10 00:02:32;;;;;;;0.70;0.20;;;;;;;;;;10280773;28;20039;-77
2022/09/10 00:07:35;;;;;;;1.67;0.50;;;;;;;;;;10271796;28;20070;-80
2022/09/10 00:12:41;;;;;;;1.00;0.40;;;;;;;;;;10288957;28;20055;-79
2022/09/10 00:17:45;;;;;;;0.30;0.30;;;;;;;;;;10270379;28;20513;-80
2022/09/10 00:22:49;;;;;;;1.60;0.43;;;;;;;;;;10263271;28;20039;-79
2022/09/10 00:27:52;;;;;;;0.80;0.40;;;;;;;;;;10280652;28;20557;-81
2022/09/10 00:32:59;;;;;;;1.00;0.20;;;;;;;;;;10271123;28;20051;-78
2022/09/10 00:38:04;;;;;;;0.57;0.20;;;;;;;;;;10270293;28;20062;-79
2022/09/10 00:43:13;;;;;;;1.30;0.40;;;;;;;;;;10270568;28;20078;-79
2022/09/10 00:48:22;;;;;;;0.57;0.43;;;;;;;;;;10262057;28;20066;-79
2022/09/10 00:53:28;;;;;;;0.45;0.20;;;;;;;;;;10262517;28;20049;-79
2022/09/10 00:58:32;;;;;;;1.98;0.40;;;;;;;;;;10269958;28;20062;-77
2022/09/10 01:03:37;;;;;;;0.63;0.20;;;;;;;;;;10261983;28;20524;-80
2022/09/10 01:08:40;;;;;;;0.55;0.20;;;;;;;;;;10279845;28;20050;-79
2022/09/10 01:14:08;;;;;;;0.30;0.20;;;;;;;;;;10286456;28;20126;-79
2022/09/10 01:19:32;;;;;;;0.70;0.22;;;;;;;;;;10269449;28;20380;-79
2022/09/10 01:24:50;;;;;;;0.40;0.30;;;;;;;;;;10269069;28;20049;-79
2022/09/10 01:30:02;;;;;;;0.57;0.20;;;;;;;;;;10268823;28;20066;-79
2022/09/10 01:35:23;;;;;;;0.13;0.10;;;;;;;;;;10161139;29;20410;-79
2022/09/10 01:40:29;;;;;;;0.30;0.13;;;;;;;;;;10184918;29;20047;-79
2022/09/10 01:45:48;;;;;;;1.88;0.28;;;;;;;;;;10187697;29;20051;-79
2022/09/10 01:51:03;;;;;;;1.03;0.20;;;;;;;;;;10201387;29;20452;-78
2022/09/10 01:56:19;;;;;;;1.00;0.28;;;;;;;;;;10201087;29;20051;-80
2022/09/10 02:01:29;;;;;;;0.30;0.20;;;;;;;;;;10191567;29;20401;-77
2022/09/10 02:06:37;;;;;;;1.27;0.32;;;;;;;;;;10262550;28;20039;-78
2022/09/10 02:11:46;;;;;;;3.08;0.28;;;;;;;;;;10268817;28;20372;-78
2022/09/10 02:17:00;;;;;;;0.73;0.35;;;;;;;;;;10268156;28;20503;-79
2022/09/10 02:22:04;;;;;;;0.47;0.20;;;;;;;;;;10268008;28;20070;-80
2022/09/10 02:27:07;;;;;;;1.33;0.52;;;;;;;;;;10268174;28;20051;-80
2022/09/10 02:32:12;;;;;;;0.50;0.35;;;;;;;;;;10259934;28;20049;-79
2022/09/10 02:37:16;;;;;;;0.40;0.25;;;;;;;;;;10285425;28;20066;-79
2022/09/10 02:42:19;;;;;;;0.52;0.20;;;;;;;;;;10293331;28;20542;-80
2022/09/10 02:47:24;;;;;;;0.98;0.20;;;;;;;;;;10293930;28;20649;-78
2022/09/10 02:52:30;;;;;;;0.45;0.30;;;;;;;;;;10260950;28;20094;-79
2022/09/10 02:57:35;;;;;;;0.63;0.30;;;;;;;;;;10276588;28;20053;-79
2022/09/10 03:02:40;;;;;;;0.40;0.15;;;;;;;;;;10261372;28;20522;-79
2022/09/10 03:07:46;;;;;;;0.43;0.30;;;;;;;;;;10276607;28;20681;-79
2022/09/10 03:12:50;;;;;;;0.40;0.20;;;;;;;;;;10266930;28;20043;-80
2022/09/10 03:17:55;;;;;;;0.52;0.50;;;;;;;;;;10291620;28;20046;-80
2022/09/10 03:22:59;;;;;;;0.50;0.30;;;;;;;;;;10290726;28;20680;-79
2022/09/10 03:28:03;;;;;;;0.45;0.20;;;;;;;;;;10274734;28;20035;-79
2022/09/10 03:33:10;;;;;;;2.17;0.40;;;;;;;;;;10274295;28;20039;-79
2022/09/10 03:38:17;;;;;;;1.33;0.28;;;;;;;;;;10265965;28;20050;-79
2022/09/10 03:43:22;;;;;;;1.30;0.30;;;;;;;;;;10273672;28;20051;-79
2022/09/10 03:48:27;;;;;;;1.10;0.30;;;;;;;;;;10271913;28;20080;-79
2022/09/10 03:53:31;;;;;;;0.73;0.20;;;;;;;;;;10289203;28;20055;-79
2022/09/10 03:58:35;;;;;;;0.98;0.20;;;;;;;;;;10273345;28;20129;-81
2022/09/10 04:03:41;;;;;;;0.43;0.20;;;;;;;;;;10291474;28;20043;-78
2022/09/10 04:08:48;;;;;;;1.45;0.30;;;;;;;;;;10265003;28;20049;-80
2022/09/10 04:13:51;;;;;;;0.47;0.10;;;;;;;;;;10272736;28;20051;-80
2022/09/10 04:18:56;;;;;;;0.65;0.20;;;;;;;;;;10272062;28;20134;-79
2022/09/10 04:24:01;;;;;;;0.60;0.25;;;;;;;;;;10272393;28;20042;-79
2022/09/10 04:29:07;;;;;;;0.68;0.20;;;;;;;;;;10272516;28;20047;-79
2022/09/10 04:34:14;;;;;;;0.98;0.30;;;;;;;;;;10289993;28;20043;-78
2022/09/10 04:39:18;;;;;;;0.60;0.35;;;;;;;;;;10256623;28;20125;-79
2022/09/10 04:44:24;;;;;;;0.53;0.17;;;;;;;;;;10272336;28;20042;-79
2022/09/10 04:49:28;;;;;;;1.75;0.40;;;;;;;;;;10264372;28;20655;-80
2022/09/10 04:54:33;;;;;;;0.63;0.50;;;;;;;;;;10265085;28;20101;-80
2022/09/10 04:59:37;;;;;;;0.40;0.10;;;;;;;;;;10263968;28;20532;-80
2022/09/10 05:04:42;;;;;;;0.40;0.15;;;;;;;;;;10271827;28;20047;-80
2022/09/10 05:09:48;;;;;;;0.80;0.17;;;;;;;;;;10288861;28;20046;-80
2022/09/10 05:14:53;;;;;;;1.35;0.25;;;;;;;;;;10271028;28;20046;-79
2022/09/10 05:19:58;;;;;;;0.40;0.20;;;;;;;;;;10287583;28;20047;-79
2022/09/10 05:25:02;;;;;;;0.50;0.20;;;;;;;;;;10289306;28;20039;-79
2022/09/10 05:30:12;;;;;;;0.40;0.20;;;;;;;;;;10271094;28;20035;-81
2022/09/10 05:35:17;;;;;;;1.58;0.40;;;;;;;;;;10271047;28;20098;-79
2022/09/10 05:40:21;;;;;;;;;;;;;;;;;;10286590;28;20067;-80
2022/09/10 05:45:27;;;;;;;0.52;0.32;;;;;;;;;;10278930;28;19922;-80
2022/09/10 05:50:33;;;;;;;0.30;0.20;;;;;;;;;;10262452;28;20392;-80
2022/09/10 05:55:37;;;;;;;0.55;0.10;;;;;;;;;;10261939;28;20039;-79
2022/09/10 06:00:43;;;;;;;1.33;0.30;;;;;;;;;;10269626;28;20074;-77
2022/09/10 06:05:50;;;;;;;0.20;0.15;;;;;;;;;;10270746;28;20051;-80
2022/09/10 06:10:59;;;;;;;0.98;0.20;;;;;;;;;;10269243;28;20063;-79
2022/09/10 06:16:06;;;;;;;0.03;0.03;;;;;;;;;;10276694;28;20050;-79
2022/09/10 06:21:14;;;;;;;0.10;0.10;;;;;;;;;;10276543;28;20039;-79
2022/09/10 06:26:19;;;;;;;0.10;0.10;;;;;;;;;;10292422;28;20039;-80
2022/09/10 06:31:26;;;;;;;0.17;0.10;;;;;;;;;;10275820;28;20051;-79
2022/09/10 06:36:34;;;;;;;0.00;0.00;;;;;;;;;;10275611;28;20530;-78
2022/09/10 06:41:37;;;;;;;0.40;0.10;;;;;;;;;;10267869;28;20135;-78
2022/09/10 06:46:47;;;;;;;0.08;0.08;;;;;;;;;;10275288;28;20043;-81
2022/09/10 06:52:12;;;;;;;0.98;0.10;;;;;;;;;;10274906;28;20130;-79
2022/09/10 06:57:16;;;;;;;0.05;0.05;;;;;;;;;;10290354;28;20053;-81
2022/09/10 07:02:20;;;;;;;0.40;0.15;;;;;;;;;;10274890;28;20094;-80
2022/09/10 07:07:28;;;;;;;0.40;0.20;;;;;;;;;;10274883;28;20483;-80
2022/09/10 07:12:32;;;;;;;0.25;0.17;;;;;;;;;;10275657;28;20069;-79
2022/09/10 07:17:37;;;;;;;0.10;0.10;;;;;;;;;;10259687;28;20035;-80
2022/09/10 07:22:43;;;;;;;0.73;0.28;;;;;;;;;;10275321;28;20727;-80
2022/09/10 07:27:49;;;;;;;0.20;0.20;;;;;;;;;;10275070;28;20042;-79
2022/09/10 07:32:53;;;;;;;0.60;0.38;;;;;;;;;;10275648;28;20426;-77
2022/09/10 07:38:02;;;;;;;1.25;0.40;;;;;;;;;;10275151;28;20039;-81
2022/09/10 07:43:07;;;;;;;2.43;0.27;;;;;;;;;;10267147;28;20705;-78
2022/09/10 07:48:12;;;;;;;1.98;0.30;;;;;;;;;;10292479;28;20447;-80
2022/09/10 07:53:18;;;;;;;2.05;0.60;;;;;;;;;;10274071;28;20050;-79
2022/09/10 07:58:22;;;;;;;2.17;0.95;;;;;;;;;;10274139;28;20051;-78
2022/09/10 08:03:29;;;;;;;2.55;0.70;;;;;;;;;;10274145;28;20047;-79
2022/09/10 08:08:37;;;;;;;1.17;0.60;;;;;;;;;;10273877;28;20464;-79
2022/09/10 08:13:44;;;;;;;2.30;0.70;;;;;;;;;;10273815;28;20042;-78
2022/09/10 08:18:50;;;;;;;0.55;0.35;;;;;;;;;;10273163;28;20050;-78
2022/09/10 08:23:56;;;;;;;3.78;0.90;;;;;;;;;;10272969;28;20046;-78
2022/09/10 08:29:01;;;;;;;4.22;0.80;;;;;;;;;;10272343;28;20047;-78
2022/09/10 08:34:05;;;;;;;2.53;0.65;;;;;;;;;;10271768;28;20050;-78
2022/09/10 08:39:12;;;;;;;5.28;1.10;;;;;;;;;;10270941;28;20142;-78
2022/09/10 08:44:33;;;;;;;2.63;1.10;;;;;;;;;;10271294;28;20039;-78
2022/09/10 08:49:42;;;;;;;3.05;1.33;;;;;;;;;;10279825;28;20051;-77
2022/09/10 08:54:55;;;;;;;2.70;0.85;;;;;;;;;;10270905;28;20047;-77
2022/09/10 09:00:01;;;;;;;5.88;1.40;;;;;;;;;;10286782;28;20395;-78
2022/09/10 09:05:16;;;;;;;3.00;0.93;;;;;;;;;;10270883;28;20074;-78
2022/09/10 09:10:37;;;;;;;1.73;0.63;;;;;;;;;;10270350;28;20093;-76
2022/09/10 09:15:48;;;;;;;3.20;0.90;;;;;;;;;;10279638;28;20050;-79
2022/09/10 09:20:57;;;;;;;1.85;0.60;;;;;;;;;;10270060;28;20051;-77
2022/09/10 09:26:09;;;;;;;2.97;1.13;;;;;;;;;;10268988;28;20559;-79
2022/09/10 09:31:16;;;;;;;1.48;0.80;;;;;;;;;;10269120;28;20097;-79
2022/09/10 09:36:28;;;;;;;2.28;0.68;;;;;;;;;;10285167;28;20075;-79
2022/09/10 09:41:42;;;;;;;0.50;0.32;;;;;;;;;;10268761;28;20500;-78
2022/09/10 09:46:50;;;;;;;0.60;0.30;;;;;;;;;;10268717;28;20129;-80
2022/09/10 09:51:53;;;;;;;1.90;0.70;;;;;;;;;;10269386;28;20138;-79
2022/09/10 09:57:00;;;;;;;2.33;0.80;;;;;;;;;;10268400;28;20042;-78
2022/09/10 10:02:11;;;;;;;2.05;0.50;;;;;;;;;;10268163;28;20503;-77
2022/09/10 10:07:14;;;;;;;2.15;0.50;;;;;;;;;;10268603;28;20125;-77
2022/09/10 10:12:21;;;;;;;1.02;0.30;;;;;;;;;;10267781;28;20367;-79
2022/09/10 10:17:37;;;;;;;1.48;0.43;;;;;;;;;;10284691;28;20042;-78
2022/09/10 10:22:42;;;;;;;3.38;0.50;;;;;;;;;;10277463;28;20046;-78
2022/09/10 10:27:47;;;;;;;1.70;0.40;;;;;;;;;;10285190;28;20054;-79
2022/09/10 10:32:53;;;;;;;1.38;0.40;;;;;;;;;;10284384;28;20049;-79
2022/09/10 10:38:27;;;;;;;1.55;0.38;;;;;;;;;;10284047;28;20035;-78
2022/09/10 10:43:40;;;;;;;1.08;0.20;;;;;;;;;;10266618;28;20149;-78
2022/09/10 10:48:57;;;;;;;1.08;0.40;;;;;;;;;;10259923;28;20535;-78
2022/09/10 10:54:22;;;;;;;0.70;0.40;;;;;;;;;;10283912;28;20090;-79
2022/09/10 10:59:43;;;;;;;1.63;0.60;;;;;;;;;;10269639;28;20046;-78
2022/09/10 11:04:50;;;;;;;1.27;0.40;;;;;;;;;;10291296;28;20619;-77
2022/09/10 11:09:59;;;;;;;1.30;0.32;;;;;;;;;;10273619;28;20073;-77
2022/09/10 11:15:19;;;;;;;1.38;0.55;;;;;;;;;;10273335;28;20051;-78
2022/09/10 11:20:26;;;;;;;2.08;0.70;;;;;;;;;;10273174;28;20043;-77
2022/09/10 11:25:36;;;;;;;1.45;0.50;;;;;;;;;;10273000;28;20481;-78
2022/09/10 11:30:45;;;;;;;1.60;0.55;;;;;;;;;;10290849;28;20050;-77
2022/09/10 11:35:54;;;;;;;0.20;0.20;;;;;;;;;;10290258;28;20411;-77
2022/09/10 11:41:06;;;;;;;1.23;0.40;;;;;;;;;;10282649;28;20229;-80
2022/09/10 11:46:16;;;;;;;0.70;0.32;;;;;;;;;;10288287;28;20054;-79
2022/09/10 11:51:24;;;;;;;0.95;0.40;;;;;;;;;;10280711;28;20044;-78
2022/09/10 11:56:39;;;;;;;1.85;0.32;;;;;;;;;;10289070;28;20035;-78
2022/09/10 12:02:14;;;;;;;0.90;0.40;;;;;;;;;;10271737;28;20068;-78
2022/09/10 12:07:41;;;;;;;0.65;0.40;;;;;;;;;;10271481;28;20290;-79
2022/09/10 12:12:49;;;;;;;0.73;0.35;;;;;;;;;;10281079;28;20054;-76
2022/09/10 12:17:57;;;;;;;1.00;0.30;;;;;;;;;;10288342;28;20637;-79
2022/09/10 12:23:01;;;;;;;0.63;0.32;;;;;;;;;;10271193;28;20042;-78
2022/09/10 12:28:07;;;;;;;0.73;0.43;;;;;;;;;;10267363;28;20050;-78
2022/09/10 12:33:58;;;;;;;1.15;0.30;;;;;;;;;;10286032;28;20474;-78
2022/09/10 12:39:22;;;;;;;0.93;0.40;;;;;;;;;;10300727;28;20043;-78
2022/09/10 12:44:46;;;;;;;0.40;0.30;;;;;;;;;;10282640;28;20518;-76
2022/09/10 12:49:54;;;;;;;0.70;0.52;;;;;;;;;;10281599;28;20089;-78
2022/09/10 12:55:07;;;;;;;2.55;0.40;;;;;;;;;;10275002;28;20122;-78
2022/09/10 13:00:22;;;;;;;1.17;0.63;;;;;;;;;;10269883;28;20047;-78
2022/09/10 13:05:30;;;;;;;1.27;0.50;;;;;;;;;;10290252;28;20050;-77
2022/09/10 13:10:34;;;;;;;0.85;0.30;;;;;;;;;;10303927;28;20042;-78
2022/09/10 13:15:38;;;;;;;2.35;0.75;;;;;;;;;;10272365;28;20480;-78
2022/09/10 13:20:43;;;;;;;1.10;0.32;;;;;;;;;;10299136;28;20050;-77
2022/09/10 13:25:47;;;;;;;1.83;0.65;;;;;;;;;;10302359;28;20043;-78
2022/09/10 13:31:01;;;;;;;0.50;0.40;;;;;;;;;;10295612;28;20047;-78
2022/09/10 13:36:14;;;;;;;0.73;0.50;;;;;;;;;;10295340;28;20045;-77
2022/09/10 13:41:47;;;;;;;0.68;0.40;;;;;;;;;;10289368;28;20035;-78
2022/09/10 13:46:54;;;;;;;0.70;0.20;;;;;;;;;;10242469;28;20046;-77
2022/09/10 13:52:01;;;;;;;1.75;0.47;;;;;;;;;;10296149;28;20042;-78
2022/09/10 13:57:17;;;;;;;0.73;0.35;;;;;;;;;;10280172;28;20047;-79
2022/09/10 14:02:21;;;;;;;;;;;;;;;;;;10260857;28;20546;-79
2022/09/10 14:07:28;;;;;;;1.27;0.10;;;;;;;;;;10272428;28;19944;-78
2022/09/10 14:12:35;;;;;;;2.53;0.73;;;;;;;;;;10269736;28;20049;-79
2022/09/10 14:17:43;;;;;;;1.10;0.50;;;;;;;;;;10266779;28;20043;-79
2022/09/10 14:23:01;;;;;;;0.95;0.40;;;;;;;;;;10267276;28;20110;-77
2022/09/10 14:28:25;;;;;;;2.20;0.55;;;;;;;;;;10267703;28;20328;-78
2022/09/10 14:33:32;;;;;;;0.30;0.20;;;;;;;;;;10274160;28;20472;-79
2022/09/10 14:38:40;;;;;;;1.52;0.40;;;;;;;;;;10279828;28;20047;-77
2022/09/10 14:43:44;;;;;;;0.85;0.20;;;;;;;;;;10279329;28;20677;-77
2022/09/10 14:49:03;;;;;;;0.20;0.20;;;;;;;;;;10295093;28;20086;-78
2022/09/10 14:54:09;;;;;;;1.13;0.38;;;;;;;;;;10293651;28;20049;-77
2022/09/10 14:59:16;;;;;;;0.63;0.30;;;;;;;;;;10310971;28;20054;-77
2022/09/10 15:04:22;;;;;;;0.22;0.20;;;;;;;;;;10288781;28;20065;-78
2022/09/10 15:09:27;;;;;;;;;;;;;;;;;;10295962;28;20495;-77
2022/09/10 15:14:32;;;;;;;1.60;0.30;;;;;;;;;;10307739;28;19922;-77
2022/09/10 15:19:35;;;;;;;0.77;0.40;;;;;;;;;;10282362;28;20042;-80
2022/09/10 15:24:40;;;;;;;0.68;0.20;;;;;;;;;;10290285;28;20058;-78
2022/09/10 15:29:55;;;;;;;1.30;0.47;;;;;;;;;;10279112;28;20055;-77
2022/09/10 15:34:58;;;;;;;1.33;0.40;;;;;;;;;;10280719;28;20042;-77
2022/09/10 15:40:03;;;;;;;2.85;1.00;;;;;;;;;;10272082;28;20146;-78
2022/09/10 15:45:08;;;;;;;2.33;0.83;;;;;;;;;;10289445;28;20511;-79
2022/09/10 15:50:13;;;;;;;1.60;0.60;;;;;;;;;;10274580;28;20083;-79
2022/09/10 15:55:18;;;;;;;1.73;0.60;;;;;;;;;;10290740;28;20126;-78
2022/09/10 16:00:22;;;;;;;1.83;0.60;;;;;;;;;;10281308;28;20047;-79
2022/09/10 16:05:26;;;;;;;1.98;0.65;;;;;;;;;;10263386;28;20049;-77
2022/09/10 16:10:31;;;;;;;0.82;0.40;;;;;;;;;;10271706;28;20077;-78
2022/09/10 16:15:36;;;;;;;0.40;0.40;;;;;;;;;;10272001;28;20043;-78
2022/09/10 16:20:40;;;;;;;1.58;0.60;;;;;;;;;;10263255;28;20049;-79
2022/09/10 16:25:53;;;;;;;1.50;0.88;;;;;;;;;;10269708;28;20046;-78
2022/09/10 16:30:57;;;;;;;1.15;0.60;;;;;;;;;;10276433;28;20051;-78
2022/09/10 16:36:04;;;;;;;1.42;0.70;;;;;;;;;;10285905;28;20069;-78
2022/09/10 16:41:10;;;;;;;2.17;0.60;;;;;;;;;;10279894;28;20070;-77
2022/09/10 16:46:14;;;;;;;1.35;0.52;;;;;;;;;;10288860;28;20039;-78
2022/09/10 16:51:19;;;;;;;1.58;0.73;;;;;;;;;;10289576;28;20138;-78
2022/09/10 16:56:27;;;;;;;0.95;0.60;;;;;;;;;;10272620;28;20078;-78
2022/09/10 17:01:31;;;;;;;1.70;0.98;;;;;;;;;;10253019;28;20047;-78
2022/09/10 17:06:35;;;;;;;1.20;0.70;;;;;;;;;;10262783;28;20122;-77
2022/09/10 17:11:40;;;;;;;1.38;0.70;;;;;;;;;;10280540;28;20035;-78
2022/09/10 17:16:43;;;;;;;6.75;0.73;;;;;;;;;;10271290;28;20515;-77
2022/09/10 17:21:50;;;;;;;4.15;0.70;;;;;;;;;;10270244;28;20142;-78
2022/09/10 17:26:55;;;;;;;0.70;0.70;;;;;;;;;;10270213;28;20138;-77
2022/09/10 17:31:58;;;;;;;2.93;0.83;;;;;;;;;;10269437;28;20046;-78
2022/09/10 17:37:02;;;;;;;2.08;0.60;;;;;;;;;;10287191;28;20248;-77
2022/09/10 17:42:07;;;;;;;1.75;0.75;;;;;;;;;;10268252;28;20069;-77
2022/09/10 17:47:10;;;;;;;2.67;0.75;;;;;;;;;;10286073;28;20522;-78
2022/09/10 17:52:14;;;;;;;2.35;0.88;;;;;;;;;;10285358;28;20046;-77
2022/09/10 17:57:19;;;;;;;1.85;0.70;;;;;;;;;;10286454;28;20047;-77
2022/09/10 18:02:22;;;;;;;1.40;0.68;;;;;;;;;;10285553;28;20054;-77
2022/09/10 18:07:25;;;;;;;2.00;0.50;;;;;;;;;;10268055;28;20414;-77
2022/09/10 18:12:30;;;;;;;1.75;0.60;;;;;;;;;;10285891;28;20504;-77
2022/09/10 18:17:33;;;;;;;0.60;0.30;;;;;;;;;;10285266;28;20631;-77
2022/09/10 18:22:36;;;;;;;0.65;0.30;;;;;;;;;;10285825;28;20376;-78
2022/09/10 18:27:42;;;;;;;1.38;0.60;;;;;;;;;;10268958;28;20058;-78
2022/09/10 18:32:47;;;;;;;3.08;0.70;;;;;;;;;;10270960;28;20038;-78
2022/09/10 18:37:50;;;;;;;2.20;0.88;;;;;;;;;;10270079;28;20515;-78
2022/09/10 18:42:55;;;;;;;3.03;0.82;;;;;;;;;;10286773;28;20050;-78
2022/09/10 18:47:59;;;;;;;1.52;0.70;;;;;;;;;;10268807;28;20097;-78
2022/09/10 18:53:03;;;;;;;0.82;0.52;;;;;;;;;;10269267;28;20042;-77
2022/09/10 18:58:09;;;;;;;3.45;0.75;;;;;;;;;;10268737;28;20039;-77
2022/09/10 19:03:13;;;;;;;1.35;0.70;;;;;;;;;;10267923;28;20130;-77
2022/09/10 19:08:18;;;;;;;1.10;0.55;;;;;;;;;;10285104;28;20054;-77
2022/09/10 19:13:24;;;;;;;2.35;0.98;;;;;;;;;;10268623;28;20050;-77
2022/09/10 19:18:27;;;;;;;2.05;0.80;;;;;;;;;;10267948;28;20069;-77
2022/09/10 19:23:34;;;;;;;1.15;0.80;;;;;;;;;;10292294;28;20101;-77
2022/09/10 19:28:39;;;;;;;1.83;0.80;;;;;;;;;;10283980;28;20043;-77
2022/09/10 19:33:42;;;;;;;5.20;1.33;;;;;;;;;;10274853;28;20533;-77
2022/09/10 19:38:46;;;;;;;1.50;0.73;;;;;;;;;;10273948;28;20059;-77
2022/09/10 19:43:52;;;;;;;2.88;1.10;;;;;;;;;;10273544;28;20058;-77
2022/09/10 19:48:58;;;;;;;2.25;1.15;;;;;;;;;;10290347;28;20047;-77
2022/09/10 19:54:01;;;;;;;1.33;0.75;;;;;;;;;;10273455;28;20515;-77
2022/09/10 19:59:07;;;;;;;1.33;0.70;;;;;;;;;;10290881;28;20051;-78
2022/09/10 20:04:12;;;;;;;2.58;1.30;;;;;;;;;;10290408;28;20129;-77
2022/09/10 20:09:16;;;;;;;2.63;1.17;;;;;;;;;;10272955;28;20126;-77
2022/09/10 20:14:20;;;;;;;7.28;1.05;;;;;;;;;;10289915;28;20050;-77
2022/09/10 20:19:24;;;;;;;2.53;1.20;;;;;;;;;;10273396;28;20047;-78
2022/09/10 20:24:27;;;;;;;2.15;0.98;;;;;;;;;;10273286;28;20507;-77
2022/09/10 20:29:32;;;;;;;5.82;2.00;;;;;;;;;;10289768;28;20053;-78
2022/09/10 20:34:35;;;;;;;2.95;1.80;;;;;;;;;;10265263;28;20435;-78
2022/09/10 20:39:41;;;;;;;1.80;1.40;;;;;;;;;;10273671;28;20043;-78
2022/09/10 20:44:46;;;;;;;1.50;1.40;;;;;;;;;;10291326;28;20053;-78
2022/09/10 20:49:49;;;;;;;3.13;1.40;;;;;;;;;;10292597;28;20046;-79
2022/09/10 20:54:52;;;;;;;2.75;1.73;;;;;;;;;;10276385;28;20043;-78
2022/09/10 20:59:58;;;;;;;1.30;1.10;;;;;;;;;;10274293;28;20035;-78
2022/09/10 21:05:02;;;;;;;2.20;0.98;;;;;;;;;;10274056;28;20039;-78
2022/09/10 21:10:06;;;;;;;2.33;1.48;;;;;;;;;;10290632;28;20545;-78
2022/09/10 21:15:11;;;;;;;1.88;0.85;;;;;;;;;;10273470;28;20513;-78
2022/09/10 21:20:15;;;;;;;2.40;1.27;;;;;;;;;;10272075;28;20046;-78
2022/09/10 21:25:18;;;;;;;2.47;1.30;;;;;;;;;;10272228;28;20294;-77
2022/09/10 21:30:23;;;;;;;2.15;1.60;;;;;;;;;;10288822;28;20042;-78
2022/09/10 21:35:26;;;;;;;2.92;1.35;;;;;;;;;;10273698;28;20050;-78
2022/09/10 21:40:31;;;;;;;1.50;1.40;;;;;;;;;;10271976;28;20042;-78
2022/09/10 21:45:37;;;;;;;2.40;1.70;;;;;;;;;;10271647;28;20057;-78
2022/09/10 21:50:41;;;;;;;4.10;1.58;;;;;;;;;;10281145;28;20066;-78
2022/09/10 21:55:44;;;;;;;1.10;1.00;;;;;;;;;;10288682;28;20134;-78
2022/09/10 22:00:49;;;;;;;2.65;1.70;;;;;;;;;;10271179;28;20704;-77
2022/09/10 22:05:52;;;;;;;2.88;1.80;;;;;;;;;;10288570;28;20086;-78
2022/09/10 22:10:56;;;;;;;1.65;1.23;;;;;;;;;;10271274;28;20039;-78
2022/09/10 22:16:01;;;;;;;1.88;1.45;;;;;;;;;;10270501;28;20054;-78
2022/09/10 22:21:05;;;;;;;3.15;1.73;;;;;;;;;;10287400;28;20066;-77
2022/09/10 22:26:10;;;;;;;3.08;2.38;;;;;;;;;;10287443;28;20070;-78
2022/09/10 22:31:17;;;;;;;3.53;1.60;;;;;;;;;;10287115;28;20035;-78
2022/09/10 22:36:23;;;;;;;1.20;1.10;;;;;;;;;;10287376;28;20134;-78
2022/09/10 22:41:27;;;;;;;1.02;0.88;;;;;;;;;;10285198;28;20520;-78
2022/09/10 22:46:33;;;;;;;0.70;0.68;;;;;;;;;;10286478;28;20053;-78
2022/09/10 22:51:39;;;;;;;1.48;1.13;;;;;;;;;;10279026;28;20061;-77
2022/09/10 22:56:43;;;;;;;;;;;;;;;;;;10275678;28;20050;-78
2022/09/10 23:01:48;;;;;;;2.45;0.80;;;;;;;;;;10277529;28;19926;-78
2022/09/10 23:06:51;;;;;;;1.92;0.77;;;;;;;;;;10296649;28;20050;-78
2022/09/10 23:11:54;;;;;;;1.27;0.90;;;;;;;;;;10279636;28;20039;-78
2022/09/10 23:16:59;;;;;;;1.05;1.00;;;;;;;;;;10277843;28;20117;-78
2022/09/10 23:22:02;;;;;;;1.90;1.60;;;;;;;;;;10294974;28;20065;-78
2022/09/10 23:27:06;;;;;;;1.75;1.65;;;;;;;;;;10278189;28;20043;-78
2022/09/10 23:32:13;;;;;;;2.30;2.10;;;;;;;;;;10294873;28;20031;-78
2022/09/10 23:37:16;;;;;;;2.10;1.90;;;;;;;;;;10294977;28;20046;-78
2022/09/10 23:42:20;;;;;;;2.70;1.58;;;;;;;;;;10294635;28;20035;-78
2022/09/10 23:47:24;;;;;;;2.28;2.08;;;;;;;;;;10293257;28;20047;-78
2022/09/10 23:52:28;;;;;;;4.15;2.03;;;;;;;;;;10276376;28;20039;-78
2022/09/10 23:57:31;;;;;;;2.25;2.03;;;;;;;;;;10293326;28;20089;-77
